sensor_id;sensor_type;location;lat;lon;timestamp;pressure;altitude;pressure_sealevel;temperature;humidity
56825;BME280;42705;50.326;18.772;2023-05-08T00:03:04;99455.02;;;5.68;66.84
56825;BME280;42705;50.326;18.772;2023-05-08T00:08:26;99453.64;;;5.58;66.85
56825;BME280;42705;50.326;18.772;2023-05-08T00:13:48;99452.70;;;5.56;66.77
56825;BME280;42705;50.326;18.772;2023-05-08T00:19:10;99454.55;;;5.63;66.59
56825;BME280;42705;50.326;18.772;2023-05-08T00:24:31;99456.60;;;5.73;66.51
56825;BME280;42705;50.326;18.772;2023-05-08T00:29:53;99453.86;;;5.79;66.19
56825;BME280;42705;50.326;18.772;2023-05-08T00:35:16;99451.42;;;5.79;65.85
56825;BME280;42705;50.326;18.772;2023-05-08T00:40:37;99454.20;;;5.76;65.30
56825;BME280;42705;50.326;18.772;2023-05-08T00:46:00;99453.79;;;5.74;65.10
56825;BME280;42705;50.326;18.772;2023-05-08T00:51:22;99454.58;;;5.75;65.12
56825;BME280;42705;50.326;18.772;2023-05-08T00:56:44;99456.47;;;5.73;64.99
56825;BME280;42705;50.326;18.772;2023-05-08T01:02:07;99460.31;;;5.69;64.87
56825;BME280;42705;50.326;18.772;2023-05-08T01:07:29;99462.73;;;5.63;64.91
56825;BME280;42705;50.326;18.772;2023-05-08T01:25:25;99467.31;;;5.61;64.98
56825;BME280;42705;50.326;18.772;2023-05-08T01:36:57;99465.52;;;5.62;64.43
56825;BME280;42705;50.326;18.772;2023-05-08T01:43:05;99468.31;;;5.59;64.39
56825;BME280;42705;50.326;18.772;2023-05-08T01:48:31;99467.77;;;5.60;64.29
56825;BME280;42705;50.326;18.772;2023-05-08T01:53:57;99473.56;;;5.61;64.25
56825;BME280;42705;50.326;18.772;2023-05-08T01:59:22;99477.16;;;5.62;64.29
56825;BME280;42705;50.326;18.772;2023-05-08T02:04:47;99470.52;;;5.66;64.59
56825;BME280;42705;50.326;18.772;2023-05-08T02:10:11;99465.62;;;5.67;64.72
56825;BME280;42705;50.326;18.772;2023-05-08T02:15:35;99465.71;;;5.65;64.67
56825;BME280;42705;50.326;18.772;2023-05-08T02:21:01;99470.83;;;5.60;64.58
56825;BME280;42705;50.326;18.772;2023-05-08T02:26:25;99478.61;;;5.61;64.86
56825;BME280;42705;50.326;18.772;2023-05-08T02:31:47;99480.80;;;5.65;64.83
56825;BME280;42705;50.326;18.772;2023-05-08T02:37:11;99477.98;;;5.70;64.87
56825;BME280;42705;50.326;18.772;2023-05-08T02:42:34;99478.95;;;5.73;65.09
56825;BME280;42705;50.326;18.772;2023-05-08T02:48:12;99484.66;;;5.77;65.13
56825;BME280;42705;50.326;18.772;2023-05-08T02:53:43;99484.05;;;5.78;65.29
56825;BME280;42705;50.326;18.772;2023-05-08T02:59:15;99482.23;;;5.77;65.12
56825;BME280;42705;50.326;18.772;2023-05-08T03:04:46;99486.98;;;5.72;65.10
56825;BME280;42705;50.326;18.772;2023-05-08T03:10:11;99485.33;;;5.68;64.72
56825;BME280;42705;50.326;18.772;2023-05-08T03:15:48;99484.74;;;5.59;64.44
56825;BME280;42705;50.326;18.772;2023-05-08T03:21:16;99491.31;;;5.56;64.38
56825;BME280;42705;50.326;18.772;2023-05-08T03:26:41;99489.10;;;5.53;64.30
56825;BME280;42705;50.326;18.772;2023-05-08T03:32:05;99493.20;;;5.54;64.46
56825;BME280;42705;50.326;18.772;2023-05-08T03:37:27;99497.54;;;5.63;64.52
56825;BME280;42705;50.326;18.772;2023-05-08T03:42:51;99499.26;;;5.76;64.63
56825;BME280;42705;50.326;18.772;2023-05-08T03:48:14;99495.52;;;5.84;64.41
56825;BME280;42705;50.326;18.772;2023-05-08T03:53:37;99498.04;;;5.89;64.42
56825;BME280;42705;50.326;18.772;2023-05-08T03:59:15;99504.41;;;5.97;64.36
56825;BME280;42705;50.326;18.772;2023-05-08T04:04:39;99508.09;;;5.96;64.08
56825;BME280;42705;50.326;18.772;2023-05-08T04:10:20;99513.63;;;5.99;64.19
56825;BME280;42705;50.326;18.772;2023-05-08T04:15:55;99521.55;;;6.07;64.09
56825;BME280;42705;50.326;18.772;2023-05-08T04:21:23;99522.73;;;6.11;64.01
56825;BME280;42705;50.326;18.772;2023-05-08T04:26:47;99527.02;;;6.21;63.84
56825;BME280;42705;50.326;18.772;2023-05-08T04:32:10;99532.46;;;6.32;63.59
56825;BME280;42705;50.326;18.772;2023-05-08T04:37:33;99542.38;;;6.42;63.28
56825;BME280;42705;50.326;18.772;2023-05-08T04:42:57;99550.84;;;6.46;62.91
56825;BME280;42705;50.326;18.772;2023-05-08T04:48:19;99547.82;;;6.44;62.69
56825;BME280;42705;50.326;18.772;2023-05-08T04:53:41;99553.56;;;6.40;62.30
56825;BME280;42705;50.326;18.772;2023-05-08T04:59:03;99555.08;;;6.38;62.43
56825;BME280;42705;50.326;18.772;2023-05-08T05:04:26;99557.00;;;6.34;62.38
56825;BME280;42705;50.326;18.772;2023-05-08T05:09:50;99559.27;;;6.37;62.21
56825;BME280;42705;50.326;18.772;2023-05-08T05:15:11;99570.98;;;6.42;62.06
56825;BME280;42705;50.326;18.772;2023-05-08T05:20:34;99580.95;;;6.53;62.15
56825;BME280;42705;50.326;18.772;2023-05-08T05:25:57;99586.05;;;6.68;62.04
56825;BME280;42705;50.326;18.772;2023-05-08T05:31:19;99585.12;;;6.87;62.03
56825;BME280;42705;50.326;18.772;2023-05-08T05:36:42;99587.32;;;7.00;61.75
56825;BME280;42705;50.326;18.772;2023-05-08T05:42:05;99595.09;;;7.07;61.52
56825;BME280;42705;50.326;18.772;2023-05-08T05:47:27;99605.99;;;7.17;61.47
56825;BME280;42705;50.326;18.772;2023-05-08T05:52:49;99613.13;;;7.31;61.28
56825;BME280;42705;50.326;18.772;2023-05-08T05:58:11;99618.10;;;7.39;61.01
56825;BME280;42705;50.326;18.772;2023-05-08T06:03:33;99623.48;;;7.48;61.03
56825;BME280;42705;50.326;18.772;2023-05-08T06:08:56;99630.44;;;7.53;60.87
56825;BME280;42705;50.326;18.772;2023-05-08T06:14:18;99635.56;;;7.52;60.09
56825;BME280;42705;50.326;18.772;2023-05-08T06:19:41;99638.83;;;7.50;59.74
56825;BME280;42705;50.326;18.772;2023-05-08T06:25:04;99643.98;;;7.51;59.51
56825;BME280;42705;50.326;18.772;2023-05-08T06:30:27;99644.54;;;7.53;59.26
56825;BME280;42705;50.326;18.772;2023-05-08T06:35:50;99648.95;;;7.55;58.95
56825;BME280;42705;50.326;18.772;2023-05-08T06:41:11;99656.55;;;7.59;58.88
56825;BME280;42705;50.326;18.772;2023-05-08T06:46:33;99656.05;;;7.64;59.11
56825;BME280;42705;50.326;18.772;2023-05-08T06:51:55;99660.66;;;7.69;59.04
56825;BME280;42705;50.326;18.772;2023-05-08T06:57:17;99665.96;;;7.64;58.56
56825;BME280;42705;50.326;18.772;2023-05-08T07:02:39;99671.23;;;7.75;58.85
56825;BME280;42705;50.326;18.772;2023-05-08T07:08:01;99677.29;;;7.84;58.29
56825;BME280;42705;50.326;18.772;2023-05-08T07:13:23;99688.70;;;7.88;57.89
56825;BME280;42705;50.326;18.772;2023-05-08T07:18:45;99687.98;;;7.98;57.92
56825;BME280;42705;50.326;18.772;2023-05-08T07:24:07;99689.64;;;8.08;57.46
56825;BME280;42705;50.326;18.772;2023-05-08T07:29:31;99694.34;;;8.02;57.14
56825;BME280;42705;50.326;18.772;2023-05-08T07:34:53;99693.23;;;8.06;57.02
56825;BME280;42705;50.326;18.772;2023-05-08T07:40:15;99692.80;;;8.13;56.84
56825;BME280;42705;50.326;18.772;2023-05-08T07:45:37;99694.16;;;8.16;56.99
56825;BME280;42705;50.326;18.772;2023-05-08T07:51:00;99691.66;;;8.23;56.74
56825;BME280;42705;50.326;18.772;2023-05-08T07:56:22;99690.51;;;8.45;56.98
56825;BME280;42705;50.326;18.772;2023-05-08T08:01:44;99690.31;;;8.76;56.39
56825;BME280;42705;50.326;18.772;2023-05-08T08:07:07;99685.70;;;9.05;56.02
56825;BME280;42705;50.326;18.772;2023-05-08T08:12:29;99679.13;;;9.23;55.66
56825;BME280;42705;50.326;18.772;2023-05-08T08:17:53;99687.45;;;9.21;55.16
56825;BME280;42705;50.326;18.772;2023-05-08T08:23:15;99683.79;;;9.40;55.03
56825;BME280;42705;50.326;18.772;2023-05-08T08:28:37;99680.54;;;9.47;54.87
56825;BME280;42705;50.326;18.772;2023-05-08T08:33:59;99685.89;;;9.55;54.53
56825;BME280;42705;50.326;18.772;2023-05-08T08:39:21;99691.03;;;9.60;53.92
56825;BME280;42705;50.326;18.772;2023-05-08T08:44:43;99685.31;;;9.51;53.83
56825;BME280;42705;50.326;18.772;2023-05-08T08:50:07;99690.02;;;9.48;53.27
56825;BME280;42705;50.326;18.772;2023-05-08T08:55:30;99695.73;;;9.54;53.43
56825;BME280;42705;50.326;18.772;2023-05-08T09:00:54;99698.75;;;9.64;53.65
56825;BME280;42705;50.326;18.772;2023-05-08T09:06:18;99707.22;;;9.78;53.28
56825;BME280;42705;50.326;18.772;2023-05-08T09:11:41;99712.56;;;9.90;52.99
56825;BME280;42705;50.326;18.772;2023-05-08T09:17:06;99712.10;;;10.02;53.00
56825;BME280;42705;50.326;18.772;2023-05-08T09:22:30;99709.00;;;10.09;52.46
56825;BME280;42705;50.326;18.772;2023-05-08T09:27:58;99712.72;;;10.21;52.41
56825;BME280;42705;50.326;18.772;2023-05-08T09:33:42;99706.36;;;10.45;51.90
56825;BME280;42705;50.326;18.772;2023-05-08T09:39:09;99702.58;;;10.64;51.65
56825;BME280;42705;50.326;18.772;2023-05-08T09:44:59;99701.39;;;10.83;51.35
56825;BME280;42705;50.326;18.772;2023-05-08T09:50:21;99699.80;;;10.95;51.11
56825;BME280;42705;50.326;18.772;2023-05-08T09:55:46;99693.93;;;10.97;50.58
56825;BME280;42705;50.326;18.772;2023-05-08T10:06:57;99688.00;;;10.94;50.60
56825;BME280;42705;50.326;18.772;2023-05-08T10:12:20;99682.79;;;11.01;50.30
56825;BME280;42705;50.326;18.772;2023-05-08T10:18:02;99678.64;;;10.98;50.28
56825;BME280;42705;50.326;18.772;2023-05-08T10:23:25;99671.64;;;11.01;49.83
56825;BME280;42705;50.326;18.772;2023-05-08T10:28:57;99666.52;;;10.96;49.72
56825;BME280;42705;50.326;18.772;2023-05-08T10:34:21;99665.27;;;10.97;49.65
56825;BME280;42705;50.326;18.772;2023-05-08T10:39:43;99662.36;;;11.08;49.24
56825;BME280;42705;50.326;18.772;2023-05-08T10:45:06;99656.18;;;11.25;49.08
56825;BME280;42705;50.326;18.772;2023-05-08T10:56:27;99647.96;;;11.90;48.87
56825;BME280;42705;50.326;18.772;2023-05-08T11:01:50;99647.64;;;12.18;48.41
56825;BME280;42705;50.326;18.772;2023-05-08T11:07:12;99640.20;;;12.41;48.04
56825;BME280;42705;50.326;18.772;2023-05-08T11:12:35;99638.42;;;12.77;48.04
56825;BME280;42705;50.326;18.772;2023-05-08T11:18:03;99637.92;;;13.08;47.60
56825;BME280;42705;50.326;18.772;2023-05-08T11:23:27;99636.05;;;13.31;46.75
56825;BME280;42705;50.326;18.772;2023-05-08T11:46:06;99623.09;;;14.28;44.72
56825;BME280;42705;50.326;18.772;2023-05-08T11:51:35;99614.50;;;14.58;44.27
56825;BME280;42705;50.326;18.772;2023-05-08T11:56:56;99606.96;;;14.76;43.76
56825;BME280;42705;50.326;18.772;2023-05-08T12:02:42;99607.04;;;14.95;43.51
56825;BME280;42705;50.326;18.772;2023-05-08T12:08:07;99617.90;;;14.97;42.47
56825;BME280;42705;50.326;18.772;2023-05-08T12:13:29;99610.46;;;15.07;42.68
56825;BME280;42705;50.326;18.772;2023-05-08T12:18:52;99608.26;;;15.20;42.58
56825;BME280;42705;50.326;18.772;2023-05-08T12:24:16;99606.32;;;15.34;42.66
56825;BME280;42705;50.326;18.772;2023-05-08T12:29:47;99608.72;;;15.65;41.88
56825;BME280;42705;50.326;18.772;2023-05-08T12:35:10;99615.33;;;15.91;41.52
56825;BME280;42705;50.326;18.772;2023-05-08T12:40:38;99617.73;;;15.91;40.74
56825;BME280;42705;50.326;18.772;2023-05-08T12:46:02;99614.13;;;15.88;41.01
56825;BME280;42705;50.326;18.772;2023-05-08T12:51:29;99613.85;;;15.97;40.42
56825;BME280;42705;50.326;18.772;2023-05-08T12:56:52;99617.39;;;16.00;39.64
56825;BME280;42705;50.326;18.772;2023-05-08T13:02:18;99617.17;;;16.29;39.52
56825;BME280;42705;50.326;18.772;2023-05-08T13:07:42;99610.39;;;16.44;38.82
56825;BME280;42705;50.326;18.772;2023-05-08T13:13:04;99610.10;;;16.62;38.68
56825;BME280;42705;50.326;18.772;2023-05-08T13:18:26;99613.98;;;17.50;37.16
56825;BME280;42705;50.326;18.772;2023-05-08T13:23:48;99601.88;;;21.19;35.20
56825;BME280;42705;50.326;18.772;2023-05-08T13:29:10;99594.09;;;22.69;34.01
56825;BME280;42705;50.326;18.772;2023-05-08T13:34:32;99590.02;;;24.83;31.74
56825;BME280;42705;50.326;18.772;2023-05-08T13:39:54;99582.77;;;26.49;29.86
56825;BME280;42705;50.326;18.772;2023-05-08T13:45:16;99570.96;;;28.61;28.54
56825;BME280;42705;50.326;18.772;2023-05-08T13:50:39;99579.97;;;27.26;28.02
56825;BME280;42705;50.326;18.772;2023-05-08T13:56:00;99578.13;;;28.49;26.48
56825;BME280;42705;50.326;18.772;2023-05-08T14:01:22;99572.86;;;30.51;25.22
56825;BME280;42705;50.326;18.772;2023-05-08T14:06:44;99566.40;;;31.96;23.53
56825;BME280;42705;50.326;18.772;2023-05-08T14:12:07;99564.83;;;32.56;22.46
56825;BME280;42705;50.326;18.772;2023-05-08T14:17:30;99560.27;;;33.07;21.43
56825;BME280;42705;50.326;18.772;2023-05-08T14:22:52;99560.79;;;33.41;20.94
56825;BME280;42705;50.326;18.772;2023-05-08T14:28:14;99558.96;;;32.77;21.08
56825;BME280;42705;50.326;18.772;2023-05-08T14:33:37;99556.88;;;32.46;20.72
56825;BME280;42705;50.326;18.772;2023-05-08T14:38:59;99559.73;;;32.68;20.22
56825;BME280;42705;50.326;18.772;2023-05-08T14:44:21;99547.05;;;32.80;19.56
56825;BME280;42705;50.326;18.772;2023-05-08T14:49:43;99554.52;;;32.99;19.30
56825;BME280;42705;50.326;18.772;2023-05-08T14:55:05;99551.90;;;33.14;19.00
56825;BME280;42705;50.326;18.772;2023-05-08T15:00:27;99547.80;;;32.94;19.16
56825;BME280;42705;50.326;18.772;2023-05-08T15:05:49;99557.75;;;29.90;19.20
56825;BME280;42705;50.326;18.772;2023-05-08T15:11:11;99564.57;;;26.64;20.70
56825;BME280;42705;50.326;18.772;2023-05-08T15:16:33;99575.66;;;24.31;22.12
56825;BME280;42705;50.326;18.772;2023-05-08T15:21:55;99572.95;;;22.52;23.22
56825;BME280;42705;50.326;18.772;2023-05-08T15:27:17;99571.04;;;21.32;24.26
56825;BME280;42705;50.326;18.772;2023-05-08T15:32:39;99570.95;;;20.58;25.22
56825;BME280;42705;50.326;18.772;2023-05-08T15:38:00;99573.45;;;19.32;26.15
56825;BME280;42705;50.326;18.772;2023-05-08T15:43:26;99579.55;;;18.08;27.26
56825;BME280;42705;50.326;18.772;2023-05-08T15:48:48;99580.39;;;17.13;28.11
56825;BME280;42705;50.326;18.772;2023-05-08T15:54:10;99579.00;;;16.39;28.53
56825;BME280;42705;50.326;18.772;2023-05-08T15:59:31;99572.46;;;17.02;28.66
56825;BME280;42705;50.326;18.772;2023-05-08T16:04:53;99567.52;;;18.05;28.52
56825;BME280;42705;50.326;18.772;2023-05-08T16:10:15;99562.67;;;18.06;28.47
56825;BME280;42705;50.326;18.772;2023-05-08T16:15:37;99561.70;;;17.81;28.82
56825;BME280;42705;50.326;18.772;2023-05-08T16:20:59;99557.83;;;17.11;29.21
56825;BME280;42705;50.326;18.772;2023-05-08T16:26:21;99558.15;;;16.19;30.12
56825;BME280;42705;50.326;18.772;2023-05-08T16:31:43;99560.55;;;15.54;30.65
56825;BME280;42705;50.326;18.772;2023-05-08T16:37:05;99559.87;;;15.58;30.88
56825;BME280;42705;50.326;18.772;2023-05-08T16:42:27;99564.02;;;15.32;31.27
56825;BME280;42705;50.326;18.772;2023-05-08T16:47:49;99560.17;;;14.80;31.82
56825;BME280;42705;50.326;18.772;2023-05-08T16:53:11;99566.95;;;14.39;32.09
56825;BME280;42705;50.326;18.772;2023-05-08T16:58:33;99568.42;;;14.09;32.18
56825;BME280;42705;50.326;18.772;2023-05-08T17:03:55;99572.67;;;13.80;32.66
56825;BME280;42705;50.326;18.772;2023-05-08T17:09:17;99572.21;;;13.39;33.26
56825;BME280;42705;50.326;18.772;2023-05-08T17:14:39;99572.75;;;13.08;33.85
56825;BME280;42705;50.326;18.772;2023-05-08T17:20:01;99572.02;;;12.87;34.33
56825;BME280;42705;50.326;18.772;2023-05-08T17:25:22;99574.23;;;13.11;34.62
56825;BME280;42705;50.326;18.772;2023-05-08T17:30:44;99571.23;;;13.62;34.67
56825;BME280;42705;50.326;18.772;2023-05-08T17:36:07;99569.02;;;13.89;34.70
56825;BME280;42705;50.326;18.772;2023-05-08T17:41:29;99564.45;;;14.18;34.48
56825;BME280;42705;50.326;18.772;2023-05-08T17:46:51;99564.75;;;14.30;34.32
56825;BME280;42705;50.326;18.772;2023-05-08T17:52:13;99567.02;;;14.34;34.51
56825;BME280;42705;50.326;18.772;2023-05-08T17:57:36;99568.30;;;14.18;34.49
56825;BME280;42705;50.326;18.772;2023-05-08T18:02:58;99577.80;;;13.75;34.71
56825;BME280;42705;50.326;18.772;2023-05-08T18:08:20;99578.52;;;13.31;35.12
56825;BME280;42705;50.326;18.772;2023-05-08T18:13:42;99584.42;;;12.92;35.73
56825;BME280;42705;50.326;18.772;2023-05-08T18:19:04;99587.16;;;12.56;36.18
56825;BME280;42705;50.326;18.772;2023-05-08T18:24:28;99588.78;;;12.22;36.85
56825;BME280;42705;50.326;18.772;2023-05-08T18:29:50;99591.05;;;11.93;37.32
56825;BME280;42705;50.326;18.772;2023-05-08T18:35:12;99596.66;;;11.65;37.92
56825;BME280;42705;50.326;18.772;2023-05-08T18:40:34;99594.50;;;11.37;38.43
56825;BME280;42705;50.326;18.772;2023-05-08T18:45:56;99598.95;;;11.10;39.01
56825;BME280;42705;50.326;18.772;2023-05-08T18:51:21;99604.36;;;10.86;39.73
56825;BME280;42705;50.326;18.772;2023-05-08T18:56:43;99603.64;;;10.67;40.38
56825;BME280;42705;50.326;18.772;2023-05-08T19:02:06;99607.20;;;10.49;40.40
56825;BME280;42705;50.326;18.772;2023-05-08T19:07:29;99609.70;;;10.33;41.22
56825;BME280;42705;50.326;18.772;2023-05-08T19:12:51;99617.06;;;10.18;41.48
56825;BME280;42705;50.326;18.772;2023-05-08T19:18:13;99611.72;;;10.05;42.04
56825;BME280;42705;50.326;18.772;2023-05-08T19:23:35;99610.87;;;9.89;42.72
56825;BME280;42705;50.326;18.772;2023-05-08T19:28:58;99608.38;;;9.72;42.86
56825;BME280;42705;50.326;18.772;2023-05-08T19:34:21;99607.70;;;9.56;43.32
56825;BME280;42705;50.326;18.772;2023-05-08T19:39:44;99611.84;;;9.39;44.03
56825;BME280;42705;50.326;18.772;2023-05-08T19:45:07;99606.21;;;9.24;44.36
56825;BME280;42705;50.326;18.772;2023-05-08T19:50:29;99601.21;;;9.13;44.68
56825;BME280;42705;50.326;18.772;2023-05-08T19:55:51;99598.87;;;9.00;44.92
56825;BME280;42705;50.326;18.772;2023-05-08T20:01:15;99592.67;;;8.89;45.74
56825;BME280;42705;50.326;18.772;2023-05-08T20:06:37;99590.73;;;8.76;46.01
56825;BME280;42705;50.326;18.772;2023-05-08T20:12:00;99588.54;;;8.66;46.39
56825;BME280;42705;50.326;18.772;2023-05-08T20:17:22;99583.33;;;8.58;47.05
56825;BME280;42705;50.326;18.772;2023-05-08T20:22:44;99585.69;;;8.48;47.24
56825;BME280;42705;50.326;18.772;2023-05-08T20:28:06;99585.98;;;8.38;47.40
56825;BME280;42705;50.326;18.772;2023-05-08T20:33:28;99581.59;;;8.30;47.64
56825;BME280;42705;50.326;18.772;2023-05-08T20:38:51;99580.92;;;8.24;48.10
56825;BME280;42705;50.326;18.772;2023-05-08T20:44:13;99575.70;;;8.18;48.36
56825;BME280;42705;50.326;18.772;2023-05-08T20:49:38;99578.35;;;8.15;48.36
56825;BME280;42705;50.326;18.772;2023-05-08T20:55:00;99576.69;;;8.11;48.70
56825;BME280;42705;50.326;18.772;2023-05-08T21:00:22;99575.91;;;8.06;48.92
56825;BME280;42705;50.326;18.772;2023-05-08T21:05:48;99574.23;;;8.00;48.89
56825;BME280;42705;50.326;18.772;2023-05-08T21:11:11;99576.19;;;7.94;49.51
56825;BME280;42705;50.326;18.772;2023-05-08T21:16:33;99572.56;;;7.88;49.78
56825;BME280;42705;50.326;18.772;2023-05-08T21:21:55;99574.45;;;7.83;50.01
56825;BME280;42705;50.326;18.772;2023-05-08T21:27:17;99577.92;;;7.74;50.28
56825;BME280;42705;50.326;18.772;2023-05-08T21:32:43;99571.45;;;7.66;50.57
56825;BME280;42705;50.326;18.772;2023-05-08T21:38:05;99569.08;;;7.59;50.87
56825;BME280;42705;50.326;18.772;2023-05-08T21:43:28;99571.14;;;7.53;51.37
56825;BME280;42705;50.326;18.772;2023-05-08T21:48:49;99569.75;;;7.48;51.55
56825;BME280;42705;50.326;18.772;2023-05-08T21:54:11;99565.71;;;7.40;51.85
56825;BME280;42705;50.326;18.772;2023-05-08T21:59:33;99567.45;;;7.31;51.93
56825;BME280;42705;50.326;18.772;2023-05-08T22:04:55;99568.30;;;7.25;52.25
56825;BME280;42705;50.326;18.772;2023-05-08T22:10:17;99565.67;;;7.20;52.61
56825;BME280;42705;50.326;18.772;2023-05-08T22:15:39;99556.58;;;7.15;52.84
56825;BME280;42705;50.326;18.772;2023-05-08T22:21:00;99549.30;;;7.09;53.10
56825;BME280;42705;50.326;18.772;2023-05-08T22:26:22;99551.84;;;7.01;53.41
56825;BME280;42705;50.326;18.772;2023-05-08T22:31:44;99546.59;;;6.93;53.71
56825;BME280;42705;50.326;18.772;2023-05-08T22:37:07;99543.36;;;6.82;54.04
56825;BME280;42705;50.326;18.772;2023-05-08T22:42:29;99536.14;;;6.72;54.22
56825;BME280;42705;50.326;18.772;2023-05-08T22:47:52;99534.80;;;6.65;54.50
56825;BME280;42705;50.326;18.772;2023-05-08T22:53:14;99533.45;;;6.61;54.78
56825;BME280;42705;50.326;18.772;2023-05-08T22:58:37;99530.56;;;6.57;55.00
56825;BME280;42705;50.326;18.772;2023-05-08T23:03:59;99529.20;;;6.54;55.26
56825;BME280;42705;50.326;18.772;2023-05-08T23:09:20;99530.70;;;6.49;55.36
56825;BME280;42705;50.326;18.772;2023-05-08T23:14:43;99524.20;;;6.44;55.47
56825;BME280;42705;50.326;18.772;2023-05-08T23:20:05;99526.15;;;6.40;55.74
56825;BME280;42705;50.326;18.772;2023-05-08T23:25:27;99520.81;;;6.36;55.62
56825;BME280;42705;50.326;18.772;2023-05-08T23:30:49;99515.48;;;6.35;55.99
56825;BME280;42705;50.326;18.772;2023-05-08T23:36:11;99514.80;;;6.32;56.03
56825;BME280;42705;50.326;18.772;2023-05-08T23:41:33;99509.83;;;6.28;56.11
56825;BME280;42705;50.326;18.772;2023-05-08T23:46:54;99508.52;;;6.23;56.42
56825;BME280;42705;50.326;18.772;2023-05-08T23:52:16;99502.05;;;6.18;56.45
56825;BME280;42705;50.326;18.772;2023-05-08T23:57:38;99499.73;;;6.13;56.77
